Artondale, Washington
Current Conditions -  °F | °C
As of 11:53 AM on Saturday 20 Dec 2014 (Local Time) from KTIW Reporting Station
Light Rain Light Rain  
Wind Chill:   Ceiling: 1800
Heat Index:   Visibility: 2mi
Dew Point:   Wind: 0mph
Humidity: 96%   Direction: NA
Pressure: 29.58"   Gusts: NA
Location:  47.2986°N, 122.616°W
Report Text: KTIW 201953Z 00000KT 2SM -RA BR SCT003 BKN018 OVC025 08/07 A2958 RMK AO2 SLP017 P0010 T00780072
Loading
Personal Weather Stations






























Interactive Weather Map New forecast layout! Learn more

10-Day Weather Forecast

Advertisements
Track Severe Weather on mobile